createdAt,value
2019-01-24T00:00:43.830Z,38.90
2019-01-24T00:03:13.757Z,42.23
2019-01-24T00:05:43.535Z,42.80
2019-01-24T00:08:13.768Z,38.63
2019-01-24T00:10:43.773Z,46.87
2019-01-24T00:13:13.896Z,45.03
2019-01-24T00:15:44.012Z,45.83
2019-01-24T00:18:14.460Z,52.83
2019-01-24T00:20:44.467Z,67.53
2019-01-24T00:23:14.377Z,76.00
2019-01-24T00:25:45.361Z,71.80
2019-01-24T00:28:15.017Z,58.40
2019-01-24T00:30:45.105Z,44.30
2019-01-24T00:33:15.457Z,35.03
2019-01-24T00:35:45.477Z,36.33
2019-01-24T00:38:15.393Z,39.13
2019-01-24T00:40:45.301Z,40.17
2019-01-24T00:43:15.338Z,38.30
2019-01-24T00:45:45.076Z,43.63
2019-01-24T00:48:15.377Z,35.50
2019-01-24T00:50:45.471Z,35.50
2019-01-24T00:53:15.588Z,37.40
2019-01-24T00:55:46.346Z,36.27
2019-01-24T00:58:16.036Z,35.60
2019-01-24T01:00:46.376Z,35.80
2019-01-24T01:03:16.369Z,40.03
2019-01-24T01:05:46.322Z,32.97
2019-01-24T01:08:16.214Z,34.90
2019-01-24T01:10:46.217Z,37.63
2019-01-24T01:13:16.346Z,39.87
2019-01-24T01:15:46.775Z,35.23
2019-01-24T01:18:16.809Z,35.73
2019-01-24T01:20:47.016Z,31.40
2019-01-24T01:23:17.660Z,36.77
2019-01-24T01:25:47.645Z,32.17
2019-01-24T01:28:17.786Z,37.97
2019-01-24T01:30:47.997Z,36.57
2019-01-24T01:33:18.006Z,38.03
2019-01-24T01:35:48.450Z,36.50
2019-01-24T01:38:18.239Z,39.97
2019-01-24T01:40:48.048Z,40.87
2019-01-24T01:43:17.873Z,37.03
2019-01-24T01:45:47.681Z,37.73
2019-01-24T01:48:17.384Z,41.40
2019-01-24T01:50:47.733Z,38.37
2019-01-24T01:53:18.465Z,32.87
2019-01-24T01:55:48.458Z,39.33
2019-01-24T01:58:18.496Z,41.37
2019-01-24T02:00:48.384Z,38.30
2019-01-24T02:03:18.301Z,41.23
2019-01-24T02:05:48.221Z,40.60
2019-01-24T02:08:18.346Z,35.77
2019-01-24T02:10:48.777Z,36.13
2019-01-24T02:13:19.413Z,34.97
2019-01-24T02:15:49.103Z,38.73
2019-01-24T02:18:18.814Z,40.30
2019-01-24T02:20:48.843Z,35.67
2019-01-24T02:23:18.632Z,35.07
2019-01-24T02:25:48.451Z,36.90
2019-01-24T02:28:18.054Z,40.40
2019-01-24T02:30:48.084Z,39.47
2019-01-24T02:33:18.824Z,41.70
2019-01-24T02:35:48.757Z,40.07
2019-01-24T02:38:18.341Z,46.70
2019-01-24T02:40:48.446Z,38.17
2019-01-24T02:43:18.475Z,31.93
2019-01-24T02:45:48.502Z,32.30
2019-01-24T02:48:18.413Z,32.93
2019-01-24T02:50:48.628Z,38.47
2019-01-24T02:53:19.758Z,34.47
2019-01-24T02:55:49.782Z,34.33
2019-01-24T02:58:19.686Z,31.27
2019-01-24T03:00:49.720Z,37.83
2019-01-24T03:03:19.818Z,33.67
2019-01-24T03:05:49.851Z,33.70
2019-01-24T03:08:19.645Z,36.57
2019-01-24T03:10:49.481Z,37.37
2019-01-24T03:13:19.062Z,38.30
2019-01-24T03:15:48.887Z,39.30
2019-01-24T03:18:18.695Z,41.13
2019-01-24T03:20:48.822Z,40.60
2019-01-24T03:23:18.929Z,35.13
2019-01-24T03:25:49.267Z,41.00
2019-01-24T03:28:19.064Z,39.33
2019-01-24T03:30:49.207Z,41.13
2019-01-24T03:33:18.908Z,39.70
2019-01-24T03:35:49.443Z,46.90
2019-01-24T03:38:20.665Z,42.23
2019-01-24T03:40:50.472Z,47.90
2019-01-24T03:43:20.394Z,42.37
2019-01-24T03:45:49.906Z,37.63
2019-01-24T03:48:20.344Z,45.17
2019-01-24T03:50:50.462Z,48.17
2019-01-24T03:53:20.660Z,48.40
2019-01-24T03:55:50.794Z,45.20
2019-01-24T03:58:20.713Z,42.93
2019-01-24T04:00:50.627Z,71.33
2019-01-24T04:03:20.437Z,45.53
2019-01-24T04:05:51.075Z,46.40
2019-01-24T04:08:21.104Z,50.73
2019-01-24T04:10:51.003Z,47.00
2019-01-24T04:13:20.910Z,67.77
2019-01-24T04:15:50.824Z,71.70
2019-01-24T04:18:20.740Z,89.50
2019-01-24T04:20:50.222Z,111.93
2019-01-24T04:23:20.137Z,84.20
2019-01-24T04:25:50.258Z,104.47
2019-01-24T04:28:20.398Z,62.47
2019-01-24T04:30:50.398Z,71.87
2019-01-24T04:33:20.408Z,65.57
2019-01-24T04:35:50.220Z,69.63
2019-01-24T04:38:20.759Z,79.57
2019-01-24T04:40:50.865Z,97.97
2019-01-24T04:43:20.906Z,66.67
2019-01-24T04:45:51.426Z,77.03
2019-01-24T04:48:21.112Z,51.10
2019-01-24T04:50:50.857Z,43.13
2019-01-24T04:53:21.075Z,43.37
2019-01-24T04:55:50.866Z,44.47
2019-01-24T04:58:20.676Z,48.97
2019-01-24T05:00:51.023Z,54.40
2019-01-24T05:03:20.809Z,54.07
2019-01-24T05:05:50.639Z,47.83
2019-01-24T05:08:20.740Z,64.57
2019-01-24T05:10:50.348Z,73.07
2019-01-24T05:13:20.160Z,59.43
2019-01-24T05:15:50.105Z,56.47
2019-01-24T05:18:19.677Z,48.80
2019-01-24T05:20:49.616Z,58.20
2019-01-24T05:23:19.830Z,56.43
2019-01-24T05:25:49.754Z,54.10
2019-01-24T05:28:20.981Z,57.37
2019-01-24T05:30:51.725Z,55.13
2019-01-24T05:33:21.330Z,54.30
2019-01-24T05:35:51.237Z,60.00
2019-01-24T05:38:21.080Z,48.07
2019-01-24T05:40:50.749Z,42.70
2019-01-24T05:43:20.661Z,33.67
2019-01-24T05:45:50.806Z,44.20
2019-01-24T05:48:20.725Z,40.20
2019-01-24T05:50:50.724Z,41.20
2019-01-24T05:53:20.523Z,41.60
2019-01-24T05:55:50.863Z,37.93
2019-01-24T05:58:20.907Z,40.07
2019-01-24T06:00:50.672Z,35.77
2019-01-24T06:03:20.590Z,40.30
2019-01-24T06:05:50.935Z,34.33
2019-01-24T06:08:20.853Z,46.57
2019-01-24T06:10:51.081Z,38.33
2019-01-24T06:13:21.085Z,44.77
2019-01-24T06:15:50.784Z,46.23
2019-01-24T06:18:20.485Z,70.57
2019-01-24T06:20:50.823Z,71.97
2019-01-24T06:23:20.846Z,65.13
2019-01-24T06:25:50.541Z,62.23
2019-01-24T06:28:20.864Z,60.43
2019-01-24T06:30:51.587Z,54.60
2019-01-24T06:33:21.195Z,47.27
2019-01-24T06:35:51.417Z,44.17
2019-01-24T06:38:21.343Z,41.10
2019-01-24T06:40:51.783Z,50.43
2019-01-24T06:43:21.572Z,57.57
2019-01-24T06:45:51.503Z,55.50
2019-01-24T06:48:21.816Z,39.30
2019-01-24T06:50:52.104Z,34.13
2019-01-24T06:53:22.253Z,31.53
2019-01-24T06:55:52.491Z,46.13
2019-01-24T06:58:23.103Z,50.97
2019-01-24T07:00:52.824Z,44.73
2019-01-24T07:03:22.728Z,49.13
2019-01-24T07:05:55.445Z,44.30
2019-01-24T07:08:24.724Z,58.77
2019-01-24T07:10:54.944Z,48.17
2019-01-24T07:13:25.298Z,36.40
2019-01-24T07:15:55.473Z,42.50
2019-01-24T07:18:25.703Z,39.53
2019-01-24T07:20:55.715Z,37.40
2019-01-24T07:23:26.133Z,49.07
2019-01-24T07:25:56.263Z,36.27
2019-01-24T07:28:26.499Z,57.47
2019-01-24T07:30:57.019Z,45.20
2019-01-24T07:33:26.951Z,48.73
2019-01-24T07:36:02.140Z,39.73
2019-01-24T07:38:29.330Z,54.73
2019-01-24T07:41:00.446Z,54.73
2019-01-24T07:43:31.510Z,42.83
2019-01-24T07:46:01.733Z,37.03
2019-01-24T07:48:31.429Z,39.67
2019-01-24T07:51:01.665Z,41.27
2019-01-24T07:53:32.092Z,43.47
2019-01-24T07:56:01.982Z,34.97
2019-01-24T07:58:32.018Z,33.00
2019-01-24T08:01:02.855Z,41.77
2019-01-24T08:03:32.876Z,40.10
2019-01-24T08:06:08.836Z,33.37
2019-01-24T08:08:35.457Z,35.73
2019-01-24T08:11:05.775Z,38.93
2019-01-24T08:13:35.807Z,56.10
2019-01-24T08:16:08.477Z,68.83
2019-01-24T08:18:38.714Z,70.10
2019-01-24T08:21:08.906Z,54.37
2019-01-24T08:23:39.226Z,45.47
2019-01-24T08:26:10.814Z,48.63
2019-01-24T08:28:41.312Z,45.77
2019-01-24T08:31:11.427Z,48.13
2019-01-24T08:33:41.757Z,40.47
2019-01-24T08:36:15.565Z,49.20
2019-01-24T08:38:43.540Z,45.30
2019-01-24T08:41:13.443Z,55.30
2019-01-24T08:43:43.668Z,66.43
2019-01-24T08:46:14.092Z,44.00
2019-01-24T08:48:44.214Z,49.83
2019-01-24T08:51:18.236Z,50.70
2019-01-24T08:53:48.654Z,53.00
2019-01-24T08:56:20.014Z,59.13
2019-01-24T08:58:50.100Z,56.20
2019-01-24T09:01:20.450Z,75.43
2019-01-24T09:03:50.372Z,73.83
2019-01-24T09:06:22.724Z,58.23
2019-01-24T09:08:51.708Z,54.07
2019-01-24T09:11:21.419Z,60.47
2019-01-24T09:13:51.557Z,200.50
2019-01-24T09:16:21.777Z,363.70
2019-01-24T09:18:51.803Z,148.67
2019-01-24T09:21:21.690Z,250.57
2019-01-24T09:23:51.931Z,79.23
2019-01-24T09:26:21.858Z,52.10
2019-01-24T09:28:52.451Z,46.33
2019-01-24T09:31:22.684Z,47.40
2019-01-24T09:33:53.022Z,86.07
2019-01-24T09:36:29.090Z,49.03
2019-01-24T09:38:54.267Z,95.50
2019-01-24T09:41:24.094Z,80.67
2019-01-24T09:43:54.090Z,53.07
2019-01-24T09:46:24.235Z,49.27
2019-01-24T09:48:55.697Z,67.37
2019-01-24T09:51:26.423Z,79.13
2019-01-24T09:53:56.824Z,44.10
2019-01-24T09:56:27.556Z,56.33
2019-01-24T09:58:57.595Z,61.53
2019-01-24T10:01:28.708Z,57.17
2019-01-24T10:03:58.528Z,53.93
2019-01-24T10:06:28.337Z,46.90
2019-01-24T10:08:58.138Z,65.60
2019-01-24T10:11:27.748Z,58.13
2019-01-24T10:13:57.667Z,52.30
2019-01-24T10:16:27.810Z,51.30
2019-01-24T10:18:57.697Z,58.53
2019-01-24T10:21:27.819Z,56.17
2019-01-24T10:23:58.446Z,51.07
2019-01-24T10:26:29.397Z,51.83
2019-01-24T10:28:59.705Z,48.57
2019-01-24T10:31:29.747Z,45.03
2019-01-24T10:33:59.746Z,53.00
2019-01-24T10:36:29.455Z,57.73
2019-01-24T10:38:59.776Z,68.57
2019-01-24T10:41:29.696Z,41.67
2019-01-24T10:43:59.504Z,47.33
2019-01-24T10:46:29.927Z,36.07
2019-01-24T10:49:00.669Z,33.20
2019-01-24T10:51:32.727Z,41.60
2019-01-24T10:54:03.480Z,39.57
2019-01-24T10:56:35.250Z,34.43
2019-01-24T10:59:06.356Z,35.83
2019-01-24T11:01:36.167Z,35.17
2019-01-24T11:04:05.777Z,42.07
2019-01-24T11:06:36.206Z,36.60
2019-01-24T11:09:07.657Z,84.93
2019-01-24T11:11:37.466Z,53.07
2019-01-24T11:14:07.477Z,26.57
2019-01-24T11:16:37.295Z,30.37
2019-01-24T11:19:06.999Z,30.77
2019-01-24T11:21:37.017Z,23.70
2019-01-24T11:24:06.735Z,28.57
2019-01-24T11:26:36.335Z,27.20
2019-01-24T11:29:06.356Z,39.80
2019-01-24T11:31:36.067Z,42.37
2019-01-24T11:34:05.777Z,39.37
2019-01-24T11:36:35.686Z,34.77
2019-01-24T11:39:07.027Z,34.00
2019-01-24T11:41:36.748Z,50.47
2019-01-24T11:44:06.444Z,59.27
2019-01-24T11:46:36.367Z,30.57
2019-01-24T11:49:06.377Z,46.97
2019-01-24T11:51:36.398Z,38.50
2019-01-24T11:54:06.138Z,37.17
2019-01-24T11:56:35.817Z,35.00
2019-01-24T11:59:05.724Z,43.90
2019-01-24T12:01:35.436Z,40.47
2019-01-24T12:04:05.455Z,40.23
2019-01-24T12:06:34.957Z,60.60
2019-01-24T12:09:06.816Z,52.07
2019-01-24T12:11:36.424Z,52.03
2019-01-24T12:14:06.087Z,56.60
2019-01-24T12:16:36.255Z,86.03
2019-01-24T12:19:06.477Z,105.87
2019-01-24T12:21:36.707Z,168.37
2019-01-24T12:24:06.506Z,85.87
2019-01-24T12:26:36.425Z,207.17
2019-01-24T12:29:06.647Z,94.63
2019-01-24T12:31:36.255Z,70.43
2019-01-24T12:34:06.087Z,59.87
2019-01-24T12:36:35.769Z,72.97
2019-01-24T12:39:08.445Z,65.47
2019-01-24T12:41:38.778Z,63.50
2019-01-24T12:44:10.118Z,62.20
2019-01-24T12:46:40.257Z,74.67
2019-01-24T12:49:10.148Z,69.93
2019-01-24T12:51:40.688Z,43.40
2019-01-24T12:54:10.396Z,45.70
2019-01-24T12:56:40.619Z,58.73
2019-01-24T12:59:10.848Z,66.53
2019-01-24T13:01:41.518Z,60.27
2019-01-24T13:04:11.685Z,56.13
2019-01-24T13:06:42.110Z,55.27
2019-01-24T13:09:12.845Z,67.63
2019-01-24T13:11:42.764Z,70.33
2019-01-24T13:14:12.995Z,63.77
2019-01-24T13:16:44.964Z,63.40
2019-01-24T13:19:15.685Z,100.27
2019-01-24T13:21:46.039Z,80.30
2019-01-24T13:24:16.116Z,98.20
2019-01-24T13:26:46.456Z,106.83
2019-01-24T13:29:16.783Z,98.57
2019-01-24T13:31:46.799Z,77.77
2019-01-24T13:34:17.104Z,50.43
2019-01-24T13:36:48.579Z,66.80
2019-01-24T13:39:19.523Z,57.67
2019-01-24T13:41:50.134Z,88.03
2019-01-24T13:44:21.896Z,57.53
2019-01-24T13:46:56.514Z,89.27
2019-01-24T13:49:28.270Z,61.20
2019-01-24T13:51:59.815Z,58.60
2019-01-24T13:54:29.628Z,55.63
2019-01-24T13:56:59.758Z,38.70
2019-01-24T13:59:30.580Z,38.37
2019-01-24T14:02:00.517Z,46.67
2019-01-24T14:04:33.790Z,54.00
2019-01-24T14:07:03.707Z,45.70
2019-01-24T14:09:33.826Z,60.50
2019-01-24T14:12:03.840Z,94.30
2019-01-24T14:14:33.645Z,80.43
2019-01-24T14:17:03.776Z,75.20
2019-01-24T14:19:33.686Z,48.67
2019-01-24T14:22:04.006Z,68.17
2019-01-24T14:24:34.756Z,95.20
2019-01-24T14:27:04.778Z,59.10
2019-01-24T14:29:35.817Z,64.13
2019-01-24T14:32:07.756Z,61.73
2019-01-24T14:34:39.559Z,82.13
2019-01-24T14:37:09.326Z,116.47
2019-01-24T14:39:39.685Z,110.27
2019-01-24T14:42:09.796Z,71.43
2019-01-24T14:44:40.016Z,72.90
2019-01-24T14:47:10.351Z,77.33
2019-01-24T14:49:40.327Z,65.53
2019-01-24T14:52:12.197Z,68.57
2019-01-24T14:54:42.834Z,63.60
2019-01-24T14:57:13.377Z,85.50
2019-01-24T14:59:43.595Z,59.43
2019-01-24T15:02:13.816Z,71.20
2019-01-24T15:04:43.606Z,72.17
2019-01-24T15:07:13.736Z,101.73
2019-01-24T15:09:43.644Z,74.97
2019-01-24T15:12:13.966Z,109.13
2019-01-24T15:14:43.776Z,73.07
2019-01-24T15:17:14.216Z,54.43
2019-01-24T15:19:44.526Z,63.17
2019-01-24T15:22:18.846Z,72.50
2019-01-24T15:24:48.656Z,85.80
2019-01-24T15:27:18.775Z,72.87
2019-01-24T15:29:49.941Z,59.33
2019-01-24T15:32:20.026Z,76.83
2019-01-24T15:34:50.478Z,110.30
2019-01-24T15:37:20.787Z,72.60
2019-01-24T15:39:52.237Z,58.33
2019-01-24T15:42:22.757Z,46.43
2019-01-24T15:44:53.087Z,56.90
2019-01-24T15:47:23.301Z,57.60
2019-01-24T15:49:53.316Z,72.23
2019-01-24T15:52:24.152Z,77.80
2019-01-24T15:54:54.375Z,73.23
2019-01-24T15:57:24.398Z,89.10
2019-01-24T15:59:54.306Z,69.10
2019-01-24T16:02:24.226Z,65.67
2019-01-24T16:04:54.037Z,57.23
2019-01-24T16:07:23.747Z,80.93
2019-01-24T16:09:53.678Z,57.33
2019-01-24T16:12:23.677Z,77.97
2019-01-24T16:14:53.486Z,109.23
2019-01-24T16:17:28.217Z,171.10
2019-01-24T16:20:04.075Z,134.00
2019-01-24T16:22:33.977Z,109.70
2019-01-24T16:25:04.252Z,126.87
2019-01-24T16:27:36.677Z,156.27
2019-01-24T16:30:10.277Z,144.40
2019-01-24T16:32:43.677Z,111.27
2019-01-24T16:35:17.477Z,92.77
2019-01-24T16:37:48.938Z,89.27
2019-01-24T16:40:21.201Z,70.90
2019-01-24T16:42:51.728Z,100.47
2019-01-24T16:45:23.799Z,67.20
2019-01-24T16:47:53.707Z,69.50
2019-01-24T16:50:25.479Z,63.70
2019-01-24T16:52:55.787Z,261.30
2019-01-24T16:55:25.904Z,154.93
2019-01-24T16:57:56.327Z,137.60
2019-01-24T17:00:30.757Z,171.33
2019-01-24T17:03:01.077Z,198.63
2019-01-24T17:05:34.777Z,126.93
2019-01-24T17:08:06.837Z,119.63
2019-01-24T17:10:38.907Z,76.03
2019-01-24T17:13:10.766Z,88.63
2019-01-24T17:15:42.183Z,105.77
2019-01-24T17:18:13.976Z,120.07
2019-01-24T17:20:44.197Z,97.77
2019-01-24T17:23:19.531Z,105.13
2019-01-24T17:25:51.097Z,99.57
2019-01-24T17:28:25.817Z,115.73
2019-01-24T17:30:56.447Z,86.43
2019-01-24T17:33:26.778Z,132.40
2019-01-24T17:36:00.266Z,131.80
2019-01-24T17:38:30.397Z,210.63
2019-01-24T17:41:04.524Z,248.57
2019-01-24T17:43:34.944Z,194.82
2019-01-24T17:46:06.266Z,270.17
2019-01-24T17:48:38.635Z,208.87
2019-01-24T17:51:09.085Z,319.23
2019-01-24T17:53:40.318Z,275.20
2019-01-24T17:56:12.496Z,188.40
2019-01-24T17:58:45.676Z,189.33
2019-01-24T18:01:16.317Z,159.07
2019-01-24T18:03:48.291Z,181.60
2019-01-24T18:06:20.129Z,200.97
2019-01-24T18:08:53.894Z,95.87
2019-01-24T18:11:26.425Z,130.43
2019-01-24T18:13:57.467Z,124.87
2019-01-24T18:16:29.094Z,166.13
2019-01-24T18:18:59.831Z,105.83
2019-01-24T18:21:40.943Z,146.50
2019-01-24T18:24:11.841Z,133.67
2019-01-24T18:26:44.557Z,131.17
2019-01-24T18:29:20.379Z,98.37
2019-01-24T18:31:53.105Z,124.33
2019-01-24T18:34:25.078Z,98.20
2019-01-24T18:36:58.326Z,120.77
2019-01-24T18:39:29.388Z,104.43
2019-01-24T18:42:00.695Z,122.30
2019-01-24T18:44:42.901Z,113.80
2019-01-24T18:47:14.449Z,104.50
2019-01-24T18:49:45.201Z,96.53
2019-01-24T18:52:17.268Z,89.03
2019-01-24T18:54:50.436Z,153.60
2019-01-24T18:57:23.241Z,171.57
2019-01-24T18:59:56.425Z,104.93
2019-01-24T19:02:37.012Z,103.83
2019-01-24T19:05:08.236Z,155.90
2019-01-24T19:07:41.933Z,132.40
2019-01-24T19:10:13.389Z,89.33
2019-01-24T19:12:46.482Z,126.43
2019-01-24T19:15:18.337Z,104.87
2019-01-24T19:17:51.920Z,115.03
2019-01-24T19:20:22.470Z,87.57
2019-01-24T19:22:53.200Z,108.90
2019-01-24T19:25:25.969Z,91.50
2019-01-24T19:27:58.558Z,150.60
2019-01-24T19:30:31.122Z,93.63
2019-01-24T19:33:02.463Z,79.17
2019-01-24T19:35:37.818Z,97.03
2019-01-24T19:38:08.873Z,83.23
2019-01-24T19:40:40.628Z,65.47
2019-01-24T19:43:21.796Z,82.90
2019-01-24T19:45:53.537Z,81.20
2019-01-24T19:48:27.957Z,114.80
2019-01-24T19:51:02.385Z,103.13
2019-01-24T19:53:33.216Z,82.70
2019-01-24T19:56:03.879Z,89.03
2019-01-24T19:58:37.651Z,69.10
2019-01-24T20:01:12.099Z,104.13
2019-01-24T20:03:46.516Z,86.07
2019-01-24T20:06:18.959Z,136.77
2019-01-24T20:08:50.721Z,138.27
2019-01-24T20:11:21.550Z,235.73
2019-01-24T20:13:58.839Z,194.23
2019-01-24T20:16:31.824Z,89.83
2019-01-24T20:19:06.656Z,110.87
2019-01-24T20:21:41.592Z,171.97
2019-01-24T20:24:13.446Z,116.83
2019-01-24T20:26:45.918Z,317.33
2019-01-24T20:29:24.960Z,108.30
2019-01-24T20:32:01.745Z,66.13
2019-01-24T20:34:36.452Z,76.70
2019-01-24T20:37:07.998Z,100.83
2019-01-24T20:39:44.289Z,87.13
2019-01-24T20:42:16.329Z,94.37
2019-01-24T20:44:48.188Z,89.47
2019-01-24T20:47:20.982Z,99.80
2019-01-24T20:49:51.294Z,96.33
2019-01-24T20:52:31.244Z,90.37
2019-01-24T20:55:10.693Z,95.63
2019-01-24T20:57:43.875Z,56.30
2019-01-24T21:00:22.919Z,72.57
2019-01-24T21:02:54.260Z,82.83
2019-01-24T21:05:25.824Z,91.70
2019-01-24T21:07:58.129Z,100.80
2019-01-24T21:10:29.242Z,95.23
2019-01-24T21:13:03.855Z,71.00
2019-01-24T21:15:35.390Z,101.60
2019-01-24T21:18:06.124Z,124.13
2019-01-24T21:20:42.075Z,100.47
2019-01-24T21:23:17.418Z,80.37
2019-01-24T21:25:49.095Z,105.03
2019-01-24T21:28:19.814Z,83.97
2019-01-24T21:30:50.084Z,88.70
2019-01-24T21:33:20.085Z,118.87
2019-01-24T21:35:50.494Z,67.90
2019-01-24T21:38:23.085Z,67.47
2019-01-24T21:40:58.514Z,79.67
2019-01-24T21:43:31.472Z,84.57
2019-01-24T21:46:04.254Z,62.47
2019-01-24T21:48:34.805Z,104.07
2019-01-24T21:51:11.092Z,76.13
2019-01-24T21:53:37.479Z,157.63
2019-01-24T21:56:07.604Z,125.47
2019-01-24T21:58:38.004Z,149.60
2019-01-24T22:01:08.456Z,100.93
2019-01-24T22:03:38.471Z,94.37
2019-01-24T22:06:08.797Z,47.33
2019-01-24T22:08:39.734Z,70.03
2019-01-24T22:11:10.283Z,53.93
2019-01-24T22:13:40.075Z,48.23
2019-01-24T22:16:09.995Z,71.23
2019-01-24T22:18:40.104Z,55.70
2019-01-24T22:21:10.217Z,69.90
2019-01-24T22:23:40.439Z,43.63
2019-01-24T22:26:11.385Z,36.67
2019-01-24T22:28:41.690Z,48.30
2019-01-24T22:31:12.535Z,50.73
2019-01-24T22:33:42.768Z,46.27
2019-01-24T22:36:12.667Z,49.53
2019-01-24T22:38:42.816Z,43.97
2019-01-24T22:41:12.821Z,60.27
2019-01-24T22:43:42.644Z,43.47
2019-01-24T22:46:12.854Z,44.47
2019-01-24T22:48:42.975Z,43.20
2019-01-24T22:51:12.994Z,53.00
2019-01-24T22:53:42.913Z,54.70
2019-01-24T22:56:13.334Z,59.20
2019-01-24T22:58:43.331Z,51.37
2019-01-24T23:01:17.876Z,44.73
2019-01-24T23:03:50.657Z,54.90
2019-01-24T23:06:20.772Z,48.00
2019-01-24T23:08:50.887Z,58.33
2019-01-24T23:11:21.404Z,55.40
2019-01-24T23:13:55.538Z,59.93
2019-01-24T23:16:25.354Z,58.20
2019-01-24T23:18:55.647Z,53.77
2019-01-24T23:21:25.788Z,74.93
2019-01-24T23:23:55.678Z,58.27
2019-01-24T23:26:25.810Z,56.30
2019-01-24T23:28:56.445Z,54.33
2019-01-24T23:31:26.878Z,54.23
2019-01-24T23:33:56.874Z,60.83
2019-01-24T23:36:27.401Z,54.70
2019-01-24T23:38:58.235Z,66.53
2019-01-24T23:41:28.476Z,91.03
2019-01-24T23:43:58.799Z,57.53
2019-01-24T23:46:28.916Z,47.10
2019-01-24T23:48:58.811Z,49.97
2019-01-24T23:51:28.883Z,56.93
2019-01-24T23:53:59.074Z,51.57
2019-01-24T23:56:29.373Z,55.83
2019-01-24T23:58:59.616Z,54.10
